Time;durP1;ratioP1;P1;durP2;ratioP2;P2;SDS_P1;SDS_P2;PMS_P1;PMS_P2;Temp;Humidity;BMP_temperature;BMP_pressure;BME280_temperature;BME280_humidity;BME280_pressure;Samples;Min_cycle;Max_cycle;Signal;HPM_P1;HPM_P2
2023/07/22 00:00:28;;;;;;;16.20;10.15;;;;;;;17.60;59.07;101306.97;5026937;28;20121;-78
2023/07/22 00:02:53;;;;;;;15.68;10.27;;;;;;;17.57;58.76;101300.00;5029511;28;20104;-78
2023/07/22 00:05:23;;;;;;;16.02;9.93;;;;;;;17.53;59.02;101302.94;5019134;28;20057;-78
2023/07/22 00:07:48;;;;;;;15.40;10.27;;;;;;;17.45;59.37;101306.13;5019880;28;20017;-78
2023/07/22 00:10:14;;;;;;;17.55;11.50;;;;;;;17.41;60.64;101306.41;5018451;28;20032;-78
2023/07/22 00:12:39;;;;;;;15.05;10.65;;;;;;;17.30;60.03;101309.72;5032990;28;20702;-78
2023/07/22 00:15:06;;;;;;;15.65;10.85;;;;;;;17.33;59.86;101312.19;5018888;28;20029;-78
2023/07/22 00:17:31;;;;;;;17.95;11.40;;;;;;;17.09;60.49;101310.06;5017655;28;20037;-78
2023/07/22 00:19:56;;;;;;;18.38;9.93;;;;;;;17.18;60.23;101305.13;5025915;28;20025;-78
2023/07/22 00:22:22;;;;;;;17.45;10.77;;;;;;;17.12;60.35;101309.03;5020974;28;20033;-77
2023/07/22 00:24:47;;;;;;;17.88;10.60;;;;;;;17.11;60.48;101301.06;5015926;28;20403;-78
2023/07/22 00:27:12;;;;;;;16.80;10.63;;;;;;;17.13;60.18;101315.22;5022956;28;20121;-78
2023/07/22 00:29:38;;;;;;;16.65;11.52;;;;;;;17.19;60.23;101302.34;5021968;28;20037;-78
2023/07/22 00:32:07;;;;;;;18.98;11.10;;;;;;;17.24;60.90;101297.56;5025968;28;20029;-78
2023/07/22 00:34:32;;;;;;;16.67;11.18;;;;;;;17.20;60.03;101304.06;5017925;28;20033;-78
2023/07/22 00:36:57;;;;;;;17.83;10.93;;;;;;;17.19;59.77;101304.16;5024288;28;20030;-77
2023/07/22 00:39:23;;;;;;;18.40;11.32;;;;;;;17.26;60.05;101309.06;5014023;28;20026;-78
2023/07/22 00:41:48;;;;;;;16.83;11.50;;;;;;;17.22;60.26;101301.31;5021149;28;20041;-78
2023/07/22 00:44:14;;;;;;;19.40;11.75;;;;;;;17.21;60.91;101304.94;5024843;28;20033;-77
2023/07/22 00:46:39;;;;;;;16.85;10.95;;;;;;;17.22;59.99;101296.81;5017041;28;20044;-78
2023/07/22 00:49:07;;;;;;;18.55;10.45;;;;;;;17.18;60.41;101297.97;5025789;28;20022;-78
2023/07/22 00:51:33;;;;;;;17.95;11.63;;;;;;;17.18;60.24;101289.94;5020477;28;20037;-78
2023/07/22 00:53:58;;;;;;;14.82;10.43;;;;;;;17.10;60.46;101286.88;5018613;28;20048;-78
2023/07/22 00:56:24;;;;;;;14.32;10.02;;;;;;;17.17;60.60;101292.72;5019537;28;20092;-78
2023/07/22 00:58:49;;;;;;;20.23;11.10;;;;;;;17.21;60.13;101295.13;5029855;28;20025;-78
2023/07/22 01:01:14;;;;;;;15.82;9.65;;;;;;;17.29;60.14;101299.97;5014597;28;20673;-77
2023/07/22 01:03:41;;;;;;;13.38;9.52;;;;;;;17.33;62.98;101293.50;5026517;28;20052;-78
2023/07/22 01:06:07;;;;;;;16.42;9.98;;;;;;;17.32;60.71;101292.63;5026089;28;20025;-78
2023/07/22 01:08:32;;;;;;;17.98;10.48;;;;;;;17.36;60.33;101295.13;5027013;28;20029;-77
2023/07/22 01:10:58;;;;;;;16.40;10.32;;;;;;;17.39;60.45;101294.91;5026392;28;20376;-78
2023/07/22 01:13:24;;;;;;;16.40;9.98;;;;;;;17.30;60.67;101294.56;5014855;28;20026;-78
2023/07/22 01:15:49;;;;;;;16.05;10.65;;;;;;;17.22;61.41;101296.81;5025725;28;20023;-78
2023/07/22 01:18:15;;;;;;;14.88;10.68;;;;;;;17.19;60.96;101288.97;5023028;28;20509;-78
2023/07/22 01:20:41;;;;;;;16.48;10.90;;;;;;;17.17;61.73;101288.22;5018663;28;20045;-78
2023/07/22 01:23:07;;;;;;;14.40;9.10;;;;;;;17.08;62.15;101281.63;5022417;28;20025;-78
2023/07/22 01:25:32;;;;;;;17.65;10.48;;;;;;;17.03;62.08;101283.72;5028652;28;20073;-78
2023/07/22 01:27:57;;;;;;;18.27;10.55;;;;;;;17.02;62.06;101281.13;5029954;28;20022;-78
2023/07/22 01:30:23;;;;;;;17.30;10.63;;;;;;;16.96;62.33;101279.69;5024276;28;20617;-78
2023/07/22 01:32:50;;;;;;;14.32;9.80;;;;;;;16.95;62.47;101282.44;5022036;28;20429;-78
2023/07/22 01:35:15;;;;;;;16.08;10.40;;;;;;;16.98;62.00;101276.94;5019618;28;20033;-78
2023/07/22 01:37:40;;;;;;;17.33;10.13;;;;;;;16.96;62.08;101278.81;5019424;28;20499;-78
2023/07/22 01:40:11;;;;;;;15.07;9.65;;;;;;;16.90;62.78;101271.19;5027463;28;20458;-78
2023/07/22 01:42:38;;;;;;;18.05;10.13;;;;;;;16.95;62.35;101274.44;5017583;28;20045;-78
2023/07/22 01:45:06;;;;;;;15.70;10.25;;;;;;;16.93;62.74;101263.84;5018413;28;20036;-77
2023/07/22 01:47:32;;;;;;;18.00;11.02;;;;;;;16.96;62.53;101268.13;5014663;28;20389;-78
2023/07/22 01:49:58;;;;;;;16.40;10.55;;;;;;;16.95;63.26;101256.59;5031199;28;20041;-77
2023/07/22 01:52:23;;;;;;;14.75;9.82;;;;;;;16.96;62.71;101257.44;5024004;28;20358;-78
2023/07/22 01:54:48;;;;;;;18.25;10.95;;;;;;;16.85;62.79;101263.44;5015332;28;20025;-78
2023/07/22 01:57:14;;;;;;;16.83;10.65;;;;;;;16.87;62.53;101260.69;5017835;28;20031;-78
2023/07/22 01:59:39;;;;;;;16.67;10.55;;;;;;;16.77;63.08;101260.38;5042511;28;20029;-78
2023/07/22 02:02:05;;;;;;;18.13;10.35;;;;;;;16.74;63.21;101268.56;5030435;28;20021;-78
2023/07/22 02:04:30;;;;;;;18.58;11.48;;;;;;;16.65;63.71;101269.09;5017922;28;20048;-78
2023/07/22 02:06:56;;;;;;;17.70;11.35;;;;;;;16.52;64.54;101267.13;5021872;28;20645;-78
2023/07/22 02:09:21;;;;;;;20.40;10.55;;;;;;;16.43;64.22;101264.13;5020772;28;20116;-78
2023/07/22 02:11:46;;;;;;;17.38;11.63;;;;;;;16.43;65.38;101264.13;5031351;28;20028;-77
2023/07/22 02:14:12;;;;;;;18.88;10.90;;;;;;;16.47;64.13;101260.34;5026012;28;20029;-78
2023/07/22 02:16:38;;;;;;;16.83;11.02;;;;;;;16.43;65.09;101250.78;5028860;28;20462;-78
2023/07/22 02:19:03;;;;;;;22.38;12.07;;;;;;;16.44;64.39;101256.03;5019593;28;20021;-77
2023/07/22 02:21:29;;;;;;;16.10;9.95;;;;;;;16.43;64.17;101253.47;5032786;28;20044;-77
2023/07/22 02:23:55;;;;;;;21.80;11.35;;;;;;;16.37;64.86;101252.00;5033675;28;20500;-77
2023/07/22 02:26:20;;;;;;;18.80;11.57;;;;;;;16.38;64.45;101244.84;5030035;28;20028;-77
2023/07/22 02:28:46;;;;;;;17.23;10.98;;;;;;;16.45;64.59;101248.88;5045044;28;20026;-77
2023/07/22 02:31:12;;;;;;;18.23;10.55;;;;;;;16.49;64.64;101253.94;5023669;28;20022;-78
2023/07/22 02:33:37;;;;;;;17.02;11.30;;;;;;;16.42;64.81;101251.75;5025070;28;20037;-77
2023/07/22 02:36:03;;;;;;;16.92;10.00;;;;;;;16.37;64.23;101253.78;5038139;28;20025;-78
2023/07/22 02:38:28;;;;;;;18.83;11.18;;;;;;;16.31;64.95;101253.19;5033581;28;20032;-78
2023/07/22 02:40:53;;;;;;;17.77;11.45;;;;;;;16.31;64.92;101247.00;5024624;28;20025;-77
2023/07/22 02:43:19;;;;;;;18.27;10.25;;;;;;;16.38;64.19;101243.03;5040725;28;20033;-78
2023/07/22 02:45:44;;;;;;;18.17;11.05;;;;;;;16.32;64.47;101252.28;5025729;28;20029;-78
2023/07/22 02:48:09;;;;;;;17.50;10.55;;;;;;;16.20;64.94;101244.09;5025759;28;20477;-78
2023/07/22 02:50:35;;;;;;;17.77;10.57;;;;;;;16.12;65.17;101244.53;5022104;28;20028;-78
2023/07/22 02:53:00;;;;;;;15.77;10.50;;;;;;;16.04;65.00;101236.09;5034512;28;20024;-78
2023/07/22 02:55:25;;;;;;;19.75;10.23;;;;;;;16.00;65.81;101242.56;5032197;28;20437;-78
2023/07/22 02:57:51;;;;;;;17.58;10.35;;;;;;;15.89;66.18;101247.63;5016357;28;20029;-78
2023/07/22 03:00:24;;;;;;;16.23;10.45;;;;;;;15.79;65.88;101244.63;5018625;28;20687;-78
2023/07/22 03:02:54;;;;;;;14.88;10.02;;;;;;;15.79;66.40;101252.63;5016425;28;20120;-77
2023/07/22 03:05:19;;;;;;;17.58;10.88;;;;;;;15.77;66.36;101247.38;5027362;28;20115;-78
2023/07/22 03:07:45;;;;;;;19.63;10.25;;;;;;;15.74;66.37;101250.22;5026522;28;20116;-77
2023/07/22 03:10:11;;;;;;;17.33;10.80;;;;;;;15.69;66.70;101243.41;5021558;28;20099;-78
2023/07/22 03:12:36;;;;;;;17.58;10.43;;;;;;;15.68;66.98;101255.03;5023982;28;20408;-77
2023/07/22 03:15:03;;;;;;;19.25;10.30;;;;;;;15.64;66.50;101257.00;5023945;28;20227;-77
2023/07/22 03:17:29;;;;;;;18.85;10.45;;;;;;;15.66;66.83;101259.56;5028613;28;20105;-77
2023/07/22 03:19:55;;;;;;;20.88;10.77;;;;;;;15.61;66.75;101250.94;5025137;28;20120;-77
2023/07/22 03:22:20;;;;;;;19.08;9.57;;;;;;;15.64;66.48;101257.00;5031971;28;20029;-78
2023/07/22 03:24:45;;;;;;;14.20;9.38;;;;;;;15.67;66.71;101264.84;5041846;28;20037;-77
2023/07/22 03:27:12;;;;;;;19.80;10.43;;;;;;;15.61;66.64;101266.91;5028184;28;20544;-78
2023/07/22 03:29:38;;;;;;;19.90;10.90;;;;;;;15.54;67.12;101267.25;5036168;28;20485;-78
2023/07/22 03:32:04;;;;;;;14.52;9.63;;;;;;;15.51;67.50;101266.56;5023878;28;20099;-77
2023/07/22 03:34:30;;;;;;;16.70;9.65;;;;;;;15.49;67.32;101273.78;5029692;28;20138;-77
2023/07/22 03:36:56;;;;;;;18.05;10.50;;;;;;;15.50;67.37;101270.19;5027709;28;20069;-77
2023/07/22 03:39:22;;;;;;;17.83;9.88;;;;;;;15.52;66.94;101269.13;5025014;28;20789;-77
2023/07/22 03:41:47;;;;;;;16.77;10.27;;;;;;;15.50;67.00;101262.19;5021225;28;20061;-77
2023/07/22 03:44:12;;;;;;;18.00;10.57;;;;;;;15.47;66.98;101257.88;5029070;28;20116;-77
2023/07/22 03:46:38;;;;;;;17.52;10.00;;;;;;;15.50;66.85;101263.03;5023193;28;20084;-77
2023/07/22 03:49:04;;;;;;;16.73;10.27;;;;;;;15.45;67.47;101265.09;5028137;28;20071;-77
2023/07/22 03:51:29;;;;;;;16.83;10.02;;;;;;;15.36;68.20;101265.59;5022758;28;20026;-77
2023/07/22 03:53:54;;;;;;;18.83;10.32;;;;;;;15.24;68.54;101267.06;5021021;28;20086;-78
2023/07/22 03:56:20;;;;;;;17.33;10.77;;;;;;;15.00;69.11;101260.38;5035517;28;20025;-78
2023/07/22 03:58:46;;;;;;;13.63;9.18;;;;;;;14.98;69.46;101262.28;5024247;28;20443;-78
2023/07/22 04:01:12;;;;;;;15.63;9.40;;;;;;;15.00;69.07;101269.22;5017814;28;20034;-78
2023/07/22 04:03:37;;;;;;;16.50;10.18;;;;;;;15.04;69.04;101267.28;5019912;28;20126;-77
2023/07/22 04:06:02;;;;;;;14.95;10.13;;;;;;;15.00;69.81;101266.56;5035355;28;20512;-77
2023/07/22 04:08:28;;;;;;;15.35;9.48;;;;;;;14.96;69.68;101264.13;5025467;28;20040;-78
2023/07/22 04:10:54;;;;;;;17.58;10.10;;;;;;;14.98;69.52;101268.47;5023520;28;20056;-78
2023/07/22 04:13:19;;;;;;;17.33;9.68;;;;;;;14.93;69.75;101264.31;5009092;28;20034;-77
2023/07/22 04:15:45;;;;;;;16.70;9.55;;;;;;;14.92;70.29;101260.78;5031003;28;20045;-77
2023/07/22 04:18:10;;;;;;;16.92;9.60;;;;;;;14.93;69.69;101257.19;5023027;28;20120;-78
2023/07/22 04:20:35;;;;;;;15.73;9.80;;;;;;;14.91;69.94;101261.72;5014746;28;20034;-77
2023/07/22 04:23:00;;;;;;;16.63;10.27;;;;;;;14.94;69.89;101268.69;5028763;28;20155;-78
2023/07/22 04:25:26;;;;;;;18.40;9.45;;;;;;;14.97;69.71;101257.91;5028576;28;20401;-77
2023/07/22 04:27:51;;;;;;;18.92;9.98;;;;;;;14.96;69.92;101270.31;5013180;28;20049;-77
2023/07/22 04:30:20;;;;;;;15.68;9.10;;;;;;;14.97;70.13;101266.75;5029078;28;20052;-77
2023/07/22 04:32:48;;;;;;;19.33;9.48;;;;;;;15.03;69.37;101268.22;5021009;28;20038;-77
2023/07/22 04:35:13;;;;;;;15.13;9.15;;;;;;;15.07;70.10;101274.25;5028820;28;20052;-77
2023/07/22 04:37:39;;;;;;;16.92;10.18;;;;;;;15.11;69.47;101267.81;5029283;28;20197;-77
2023/07/22 04:40:06;;;;;;;17.05;10.05;;;;;;;15.11;70.07;101273.13;5030033;28;20059;-77
2023/07/22 04:42:32;;;;;;;16.40;9.50;;;;;;;15.13;70.16;101272.13;5029070;28;20049;-77
2023/07/22 04:44:57;;;;;;;18.40;10.00;;;;;;;15.13;69.82;101272.13;5021955;28;20167;-78
2023/07/22 04:47:22;;;;;;;18.52;10.57;;;;;;;15.19;69.51;101274.44;5023568;28;20017;-78
2023/07/22 04:49:47;;;;;;;19.52;10.55;;;;;;;15.22;69.66;101273.44;5031620;28;20021;-77
2023/07/22 04:52:13;;;;;;;17.17;9.80;;;;;;;15.29;69.36;101273.06;5038521;28;20491;-78
2023/07/22 04:54:38;;;;;;;14.15;9.38;;;;;;;15.35;69.52;101273.66;5030622;28;20032;-78
2023/07/22 04:57:03;;;;;;;17.85;9.27;;;;;;;15.38;69.09;101274.34;5030956;28;20029;-78
2023/07/22 04:59:29;;;;;;;15.30;9.77;;;;;;;15.50;69.43;101275.50;5026666;28;20519;-77
2023/07/22 05:01:54;;;;;;;15.65;9.40;;;;;;;15.65;68.78;101274.69;5018393;28;20045;-77
2023/07/22 05:04:20;;;;;;;18.90;10.00;;;;;;;15.72;68.25;101278.78;5029457;28;20029;-77
2023/07/22 05:06:45;;;;;;;16.55;9.63;;;;;;;15.79;69.12;101280.13;5038851;28;20031;-78
2023/07/22 05:09:10;;;;;;;18.38;9.90;;;;;;;15.91;68.36;101283.09;5021438;28;20120;-78
2023/07/22 05:11:35;;;;;;;15.75;9.05;;;;;;;16.03;67.40;101282.38;5020837;28;20045;-77
2023/07/22 05:14:00;;;;;;;16.83;10.02;;;;;;;16.07;67.39;101278.59;5034135;28;20476;-77
2023/07/22 05:16:26;;;;;;;16.52;9.77;;;;;;;16.11;67.71;101287.31;5039885;28;20041;-78
2023/07/22 05:18:51;;;;;;;15.23;9.05;;;;;;;16.11;67.96;101287.31;5022947;28;20030;-77
2023/07/22 05:21:16;;;;;;;15.57;10.13;;;;;;;16.20;67.05;101292.13;5026003;28;20120;-78
2023/07/22 05:23:42;;;;;;;14.20;9.38;;;;;;;16.18;67.39;101297.56;5013866;28;20024;-77
2023/07/22 05:26:07;;;;;;;20.63;10.18;;;;;;;16.11;68.16;101290.81;5019665;28;20566;-78
2023/07/22 05:28:32;;;;;;;16.50;9.50;;;;;;;16.15;67.53;101291.53;5026278;28;20029;-78
2023/07/22 05:30:57;;;;;;;15.32;8.45;;;;;;;16.19;67.65;101285.94;5019839;28;20416;-77
2023/07/22 05:33:23;;;;;;;14.15;9.18;;;;;;;16.20;67.46;101289.47;5029717;28;20056;-78
2023/07/22 05:35:48;;;;;;;15.90;10.07;;;;;;;16.07;67.39;101279.47;5028700;28;20021;-78
2023/07/22 05:38:13;;;;;;;16.35;9.65;;;;;;;16.06;67.75;101280.41;5037881;28;20031;-77
2023/07/22 05:40:39;;;;;;;18.85;9.00;;;;;;;16.07;67.68;101276.78;5037199;28;20267;-78
2023/07/22 05:43:04;;;;;;;17.90;9.90;;;;;;;16.19;67.09;101283.25;5025747;28;20038;-78
2023/07/22 05:45:29;;;;;;;16.33;9.10;;;;;;;16.41;67.00;101282.03;5028761;28;20672;-78
2023/07/22 05:47:54;;;;;;;17.95;9.85;;;;;;;16.59;66.44;101286.28;5020747;28;20036;-78
2023/07/22 05:50:20;;;;;;;19.48;9.57;;;;;;;16.69;66.76;101281.28;5029612;28;20027;-77
2023/07/22 05:52:45;;;;;;;14.43;9.25;;;;;;;16.82;66.26;101282.31;5023850;28;20538;-77
2023/07/22 05:55:11;;;;;;;14.57;9.13;;;;;;;16.94;66.11;101283.41;5024164;28;20040;-77
2023/07/22 05:57:36;;;;;;;16.75;9.00;;;;;;;16.86;66.04;101280.31;5021671;28;20688;-78
2023/07/22 06:00:02;;;;;;;15.88;9.55;;;;;;;16.82;66.17;101283.16;5025449;28;20117;-77
2023/07/22 06:02:28;;;;;;;19.70;9.70;;;;;;;16.83;66.00;101276.91;5025092;28;20029;-77
2023/07/22 06:04:53;;;;;;;15.13;9.63;;;;;;;16.88;66.36;101278.41;5025172;28;20029;-77
2023/07/22 06:07:18;;;;;;;19.30;10.80;;;;;;;16.86;66.46;101281.19;5019300;28;20481;-77
2023/07/22 06:09:43;;;;;;;17.45;10.35;;;;;;;16.93;66.77;101281.69;5027469;28;20036;-78
2023/07/22 06:12:09;;;;;;;18.10;9.63;;;;;;;17.00;66.42;101283.88;5024943;28;20041;-77
2023/07/22 06:14:34;;;;;;;17.63;9.45;;;;;;;17.16;66.54;101278.50;5014358;28;20036;-77
2023/07/22 06:16:59;;;;;;;14.95;9.55;;;;;;;17.32;65.67;101273.91;5013874;28;20022;-78
2023/07/22 06:19:25;;;;;;;20.63;11.07;;;;;;;17.45;65.37;101275.84;5026581;28;20088;-77
2023/07/22 06:21:50;;;;;;;20.10;10.90;;;;;;;17.50;65.63;101271.06;5026395;28;20036;-77
2023/07/22 06:24:16;;;;;;;19.00;10.75;;;;;;;17.60;66.14;101267.72;5020263;28;20029;-77
2023/07/22 06:26:41;;;;;;;19.40;10.90;;;;;;;17.69;65.13;101274.31;5017885;28;20061;-78
2023/07/22 06:29:06;;;;;;;18.63;9.90;;;;;;;17.65;64.71;101279.94;5017992;28;20071;-77
2023/07/22 06:31:32;;;;;;;21.85;11.32;;;;;;;17.55;64.97;101271.66;5014282;28;20053;-79
2023/07/22 06:33:59;;;;;;;22.23;11.10;;;;;;;17.55;65.32;101266.31;5021261;28;20021;-77
2023/07/22 06:36:24;;;;;;;18.25;10.00;;;;;;;17.60;65.41;101267.72;5021304;28;20480;-77
2023/07/22 06:38:50;;;;;;;18.40;10.90;;;;;;;17.57;64.94;101267.06;5017501;28;20040;-77
2023/07/22 06:41:15;;;;;;;18.00;10.45;;;;;;;17.74;65.09;101266.88;5026340;28;20041;-78
2023/07/22 06:43:40;;;;;;;17.52;10.93;;;;;;;17.85;64.74;101263.53;5022060;28;20641;-78
2023/07/22 06:46:06;;;;;;;21.30;10.32;;;;;;;17.71;65.98;101264.38;5030110;28;20025;-78
2023/07/22 06:48:31;;;;;;;18.85;10.43;;;;;;;17.83;65.06;101260.94;5024223;28;20369;-77
2023/07/22 06:50:56;;;;;;;16.90;10.65;;;;;;;18.07;65.64;101260.34;5045437;28;20534;-78
2023/07/22 06:53:21;;;;;;;21.05;10.38;;;;;;;18.22;64.69;101253.13;5024703;28;20591;-77
2023/07/22 06:55:53;;;;;;;19.50;11.15;;;;;;;18.35;64.14;101254.03;5019627;28;20037;-78
2023/07/22 06:58:27;;;;;;;22.73;11.38;;;;;;;18.37;64.26;101254.78;5026788;28;20022;-77
2023/07/22 07:00:53;;;;;;;19.92;11.02;;;;;;;18.38;64.21;101245.81;5033911;28;20056;-77
2023/07/22 07:03:19;;;;;;;18.25;10.20;;;;;;;18.35;63.75;101252.22;5018289;28;20037;-78
2023/07/22 07:05:51;;;;;;;17.15;10.52;;;;;;;18.49;63.76;101251.28;5036315;28;20025;-77
2023/07/22 07:08:17;;;;;;;17.25;10.52;;;;;;;18.73;64.53;101248.81;5020596;28;20025;-77
2023/07/22 07:10:42;;;;;;;18.92;10.27;;;;;;;19.01;63.06;101252.28;5021088;28;20033;-78
2023/07/22 07:13:09;;;;;;;19.95;11.10;;;;;;;19.18;62.32;101246.63;5015257;28;20060;-78
2023/07/22 07:15:34;;;;;;;16.92;11.27;;;;;;;19.20;62.79;101244.69;5027728;28;20037;-77
2023/07/22 07:17:59;;;;;;;19.15;10.95;;;;;;;19.22;62.12;101240.09;5020215;28;20095;-77
2023/07/22 07:20:25;;;;;;;20.95;11.27;;;;;;;19.11;61.96;101242.63;5027450;28;20033;-77
2023/07/22 07:22:50;;;;;;;18.55;10.75;;;;;;;18.98;62.68;101248.00;5023277;28;20453;-78
2023/07/22 07:25:16;;;;;;;17.17;10.02;;;;;;;18.92;63.25;101244.88;5013537;28;20043;-78
2023/07/22 07:27:41;;;;;;;19.50;10.90;;;;;;;19.00;63.49;101243.41;5021718;28;20033;-78
2023/07/22 07:30:08;;;;;;;16.65;10.45;;;;;;;19.19;62.84;101245.66;5041436;28;20025;-78
2023/07/22 07:32:33;;;;;;;17.48;10.73;;;;;;;19.20;62.06;101246.50;5019975;28;20033;-78
2023/07/22 07:34:58;;;;;;;22.83;11.05;;;;;;;19.18;63.08;101245.78;5030898;28;20033;-78
2023/07/22 07:37:24;;;;;;;23.77;11.13;;;;;;;19.07;62.46;101246.50;5023933;28;20025;-78
2023/07/22 07:39:49;;;;;;;16.48;10.73;;;;;;;19.04;62.80;101244.91;5025723;28;20027;-78
2023/07/22 07:42:14;;;;;;;19.08;10.88;;;;;;;19.23;62.14;101249.84;5032376;28;20057;-78
2023/07/22 07:44:39;;;;;;;20.80;10.60;;;;;;;19.36;62.21;101239.97;5024664;28;20040;-78
2023/07/22 07:47:05;;;;;;;24.10;11.55;;;;;;;19.29;62.51;101249.41;5017389;28;20439;-78
2023/07/22 07:49:30;;;;;;;19.65;9.65;;;;;;;19.38;61.58;101247.91;5020329;28;20035;-77
2023/07/22 07:51:55;;;;;;;20.23;10.52;;;;;;;19.58;62.27;101246.47;5022180;28;20026;-77
2023/07/22 07:54:21;;;;;;;19.88;10.63;;;;;;;19.78;62.00;101243.28;5013420;28;20234;-78
2023/07/22 07:56:46;;;;;;;16.02;9.82;;;;;;;19.97;60.60;101248.16;5029745;28;20491;-78
2023/07/22 07:59:11;;;;;;;17.88;9.45;;;;;;;20.28;60.50;101249.41;5026055;28;20326;-78
2023/07/22 08:01:41;;;;;;;16.58;10.75;;;;;;;20.78;58.81;101258.22;5021586;28;20017;-78
2023/07/22 08:04:06;;;;;;;16.85;8.73;;;;;;;21.10;57.25;101254.88;5016866;28;20083;-78
2023/07/22 08:06:33;;;;;;;19.70;9.02;;;;;;;21.09;58.04;101259.41;5024532;28;20017;-78
2023/07/22 08:08:58;;;;;;;17.08;9.52;;;;;;;20.97;58.46;101256.78;5029565;28;20023;-78
2023/07/22 08:11:24;;;;;;;16.13;9.23;;;;;;;21.09;57.50;101261.22;5022607;28;20025;-78
2023/07/22 08:13:51;;;;;;;16.80;9.18;;;;;;;21.30;57.85;101247.94;5046799;28;20047;-79
2023/07/22 08:16:16;;;;;;;15.30;8.43;;;;;;;21.46;55.82;101253.00;5029664;28;20029;-78
2023/07/22 08:18:41;;;;;;;14.18;8.90;;;;;;;21.46;56.39;101247.63;5034418;28;20044;-79
2023/07/22 08:21:07;;;;;;;15.63;8.68;;;;;;;21.13;56.98;101254.66;5033367;28;20014;-78
2023/07/22 08:23:34;;;;;;;14.68;7.50;;;;;;;21.24;56.21;101249.28;5025513;28;20067;-78
2023/07/22 08:25:59;;;;;;;16.08;9.02;;;;;;;21.01;56.68;101261.81;5017534;28;20083;-78
2023/07/22 08:28:24;;;;;;;12.18;7.55;;;;;;;21.12;56.56;101258.28;5028338;28;20025;-78
2023/07/22 08:30:50;;;;;;;10.48;7.22;;;;;;;21.25;55.96;101256.34;5020617;28;20362;-78
2023/07/22 08:33:16;;;;;;;14.88;8.50;;;;;;;21.09;56.92;101259.41;5018081;28;20057;-78
2023/07/22 08:35:42;;;;;;;16.55;8.20;;;;;;;21.13;55.82;101266.25;5014940;28;20026;-78
2023/07/22 08:38:08;;;;;;;13.32;7.82;;;;;;;21.51;54.94;101258.88;5035030;28;20467;-78
2023/07/22 08:40:39;;;;;;;17.75;7.85;;;;;;;22.04;53.89;101257.22;5034885;28;20408;-78
2023/07/22 08:43:07;;;;;;;11.60;7.57;;;;;;;22.91;52.75;101257.22;5027720;28;20046;-78
2023/07/22 08:45:36;;;;;;;13.38;7.07;;;;;;;23.39;49.13;101260.19;5018833;28;20026;-79
2023/07/22 08:48:07;;;;;;;15.60;7.15;;;;;;;23.66;48.10;101256.09;5032678;28;20445;-78
2023/07/22 08:50:53;;;;;;;13.77;6.68;;;;;;;23.99;47.41;101254.06;5027678;28;20026;-78
2023/07/22 08:53:19;;;;;;;12.23;6.28;;;;;;;24.89;46.31;101253.84;5035854;28;20033;-78
2023/07/22 08:55:45;;;;;;;9.23;5.38;;;;;;;25.59;42.85;101257.09;5029047;28;20044;-78
2023/07/22 08:58:11;;;;;;;7.93;6.05;;;;;;;25.38;44.02;101251.91;5029924;28;20025;-78
2023/07/22 09:00:39;;;;;;;7.63;5.32;;;;;;;25.70;44.00;101255.06;5030665;28;20503;-78
2023/07/22 09:03:05;;;;;;;8.13;5.90;;;;;;;25.97;42.42;101257.94;5025707;28;20021;-79
2023/07/22 09:05:35;;;;;;;9.52;6.35;;;;;;;25.94;43.48;101253.69;5029196;28;20038;-78
2023/07/22 09:08:02;;;;;;;7.93;5.05;;;;;;;25.57;41.42;101259.13;5030486;28;20028;-78
2023/07/22 09:10:28;;;;;;;7.90;5.25;;;;;;;25.45;42.80;101243.03;5019110;28;20108;-78
2023/07/22 09:12:54;;;;;;;10.07;5.72;;;;;;;24.77;42.68;101261.28;5016933;28;20052;-78
2023/07/22 09:15:20;;;;;;;9.60;6.10;;;;;;;24.18;45.56;101259.50;5022481;28;20577;-78
2023/07/22 09:17:46;;;;;;;11.40;5.85;;;;;;;23.97;46.60;101254.19;5023316;28;20836;-78
2023/07/22 09:20:15;;;;;;;9.10;5.50;;;;;;;23.98;46.37;101255.06;5021865;28;20078;-78
2023/07/22 09:22:45;;;;;;;9.73;5.82;;;;;;;23.69;46.32;101250.41;5022741;28;20534;-78
2023/07/22 09:25:20;;;;;;;8.45;5.25;;;;;;;23.25;46.58;101248.88;5029501;28;20048;-79
2023/07/22 09:27:47;;;;;;;6.70;5.20;;;;;;;23.10;47.30;101248.38;5018758;28;20033;-78
2023/07/22 09:30:30;;;;;;;12.85;5.50;;;;;;;23.53;47.07;101247.31;5022536;28;20033;-79
2023/07/22 09:33:01;;;;;;;7.68;4.93;;;;;;;23.86;45.67;101252.44;5023371;28;20048;-78
2023/07/22 09:35:49;;;;;;;8.55;4.80;;;;;;;23.84;45.32;101240.09;5035048;28;20025;-78
2023/07/22 09:38:21;;;;;;;7.78;4.63;;;;;;;23.65;45.67;101248.97;5016606;28;20393;-78
2023/07/22 09:40:47;;;;;;;9.18;4.85;;;;;;;23.53;46.08;101239.22;5020673;28;20071;-78
2023/07/22 09:43:12;;;;;;;7.25;5.22;;;;;;;23.33;46.20;101238.28;5024497;28;20062;-78
2023/07/22 09:45:37;;;;;;;7.32;4.85;;;;;;;23.43;45.53;101233.78;5029058;28;20476;-78
2023/07/22 09:48:04;;;;;;;5.85;4.53;;;;;;;23.52;46.00;101234.81;5022696;28;20030;-78
2023/07/22 09:50:29;;;;;;;8.02;4.90;;;;;;;23.55;46.30;101232.72;5023775;28;20032;-78
2023/07/22 09:52:57;;;;;;;9.82;4.85;;;;;;;23.46;46.45;101247.03;5021541;28;21163;-78
2023/07/22 09:55:28;;;;;;;7.65;5.00;;;;;;;23.49;47.50;101237.78;5040280;28;20029;-78
2023/07/22 09:58:01;;;;;;;7.80;4.80;;;;;;;23.61;46.62;101236.72;5031784;28;20527;-78
2023/07/22 10:00:33;;;;;;;9.55;4.53;;;;;;;23.10;47.62;101240.28;5039143;28;20025;-78
2023/07/22 10:03:00;;;;;;;9.40;4.95;;;;;;;22.94;48.09;101229.09;5045812;28;20092;-78
2023/07/22 10:05:26;;;;;;;8.77;4.82;;;;;;;23.24;48.34;101233.69;5010661;28;20216;-78
2023/07/22 10:07:54;;;;;;;8.82;4.00;;;;;;;23.22;46.69;101236.50;5023650;28;20501;-78
2023/07/22 10:10:23;;;;;;;6.50;3.13;;;;;;;22.94;47.01;101232.66;5040235;28;20116;-78
2023/07/22 10:12:48;;;;;;;9.88;4.30;;;;;;;22.85;48.37;101241.53;5027299;28;20436;-78
2023/07/22 10:15:17;;;;;;;9.88;4.30;;;;;;;22.80;48.20;101241.94;5023931;28;20033;-78
2023/07/22 10:17:44;;;;;;;8.32;4.10;;;;;;;22.91;47.81;101241.88;5018816;28;20033;-78
2023/07/22 10:20:14;;;;;;;9.32;4.18;;;;;;;23.00;47.57;101237.53;5019021;28;20276;-78
2023/07/22 10:22:41;;;;;;;8.25;4.30;;;;;;;23.09;47.47;101244.84;5025361;28;20026;-78
2023/07/22 10:25:09;;;;;;;9.70;4.50;;;;;;;23.42;47.67;101235.63;5023366;28;20042;-78
2023/07/22 10:27:35;;;;;;;10.00;4.28;;;;;;;23.77;45.66;101236.22;5024414;28;20063;-78
2023/07/22 10:30:02;;;;;;;6.45;3.90;;;;;;;24.47;45.54;101235.22;5033666;28;20026;-78
2023/07/22 10:32:54;;;;;;;8.98;3.78;;;;;;;24.74;44.79;101239.91;5016796;28;20116;-78
2023/07/22 10:35:42;;;;;;;6.00;3.72;;;;;;;24.52;44.63;101235.66;5012302;28;20426;-78
2023/07/22 10:38:10;;;;;;;6.40;3.40;;;;;;;24.47;42.92;101231.66;5016852;28;20389;-78
2023/07/22 10:40:53;;;;;;;5.03;2.83;;;;;;;24.23;44.06;101237.44;5023942;28;20033;-78
2023/07/22 10:43:29;;;;;;;6.50;3.53;;;;;;;24.12;45.42;101233.03;5033167;28;20044;-78
2023/07/22 10:45:56;;;;;;;7.30;3.80;;;;;;;24.57;44.30;101232.50;5022872;28;20041;-78
2023/07/22 10:48:26;;;;;;;5.28;2.90;;;;;;;24.73;43.46;101231.97;5019571;28;20025;-78
2023/07/22 10:50:53;;;;;;;8.48;3.40;;;;;;;24.79;43.23;101216.00;5017234;28;20495;-78
2023/07/22 10:53:29;;;;;;;9.43;3.30;;;;;;;24.98;42.31;101211.53;5029283;28;20068;-79
2023/07/22 10:56:06;;;;;;;6.60;2.70;;;;;;;24.98;42.53;101214.25;5031904;28;20045;-79
2023/07/22 10:58:34;;;;;;;4.25;2.80;;;;;;;25.13;41.62;101219.09;5013812;28;20044;-79
2023/07/22 11:01:24;;;;;;;5.63;2.80;;;;;;;25.13;41.99;101218.22;5029599;28;20022;-79
2023/07/22 11:04:17;;;;;;;2.65;1.98;;;;;;;25.35;40.45;101225.97;5020147;28;20043;-78
2023/07/22 11:06:48;;;;;;;3.58;1.92;;;;;;;25.50;38.25;101220.94;5022455;28;20036;-78
2023/07/22 11:09:29;;;;;;;2.93;1.67;;;;;;;25.48;39.67;101222.94;5017985;28;20497;-78
2023/07/22 11:11:59;;;;;;;2.83;1.88;;;;;;;25.80;39.87;101225.25;5029563;28;20040;-78